This is the latest recevied weather packets stored in our database for station/object EB2EMZ-14. If no packets are shown the sender has not sent any weather packets the latest 10 day(s).
| Time | Temp. | Humidity | Pressure | Rain* | Wind** | Luminosity | Snow |
|---|---|---|---|---|---|---|---|
| 1777795517 | 25.56° C | 62% | 1012.4 hPa | 0 mm | - | 0 W/m² | - |
| 1777795218 | 23.89° C | 67% | 1012.4 hPa | 0 mm | - | 0 W/m² | - |
| 1777794917 | 22.22° C | 73% | 1012.3 hPa | 0 mm | - | 0 W/m² | - |
| 1777794617 | 20° C | 81% | 1012.3 hPa | 0 mm | - | 0 W/m² | - |
| 1777794317 | 17.22° C | 86% | 1012.3 hPa | 0 mm | - | 0 W/m² | - |
| 1777794017 | 15.56° C | 85% | 1012.4 hPa | 0 mm | - | 0 W/m² | - |
| 1777793717 | 15° C | 85% | 1012.5 hPa | 0 mm | - | 0 W/m² | - |
| 1777793418 | 15.56° C | 85% | 1012.5 hPa | 0 mm | - | 0 W/m² | - |
| 1777793117 | 15.56° C | 86% | 1012.5 hPa | 0 mm | - | 0 W/m² | - |
| 1777792817 | 16.11° C | 87% | 1012.6 hPa | 0 mm | - | 0 W/m² | - |
| 1777792518 | 16.11° C | 88% | 1012.6 hPa | 0 mm | - | 0 W/m² | - |
| 1777792218 | 16.11° C | 89% | 1012.5 hPa | 0 mm | - | 0 W/m² | - |
| 1777791918 | 16.67° C | 92% | 1012.4 hPa | 0 mm | - | 0 W/m² | - |
| 1777791620 | 16.67° C | 93% | 1012.6 hPa | 0 mm | - | 0 W/m² | - |
| 1777791317 | 16.67° C | 94% | 1012.3 hPa | 0 mm | - | 0 W/m² | - |
| 1777791019 | 16.67° C | 95% | 1012.4 hPa | 0 mm | - | 0 W/m² | - |
| 1777790717 | 15.56° C | 95% | 1012.4 hPa | 0 mm | - | 0 W/m² | - |
| 1777790417 | 13.89° C | 94% | 1012.4 hPa | 0 mm | - | 0 W/m² | - |
| 1777790117 | 13.33° C | 94% | 1012.6 hPa | 0 mm | - | 0 W/m² | - |
| 1777789817 | 12.78° C | 94% | 1012.5 hPa | 0 mm | - | 0 W/m² | - |
| 1777789518 | 12.22° C | 94% | 1012.6 hPa | 0 mm | - | 0 W/m² | - |
| 1777789217 | 11.67° C | 94% | 1012.5 hPa | 0 mm | - | 0 W/m² | - |
| 1777788916 | 11.11° C | 93% | 1012.5 hPa | 0 mm | - | 0 W/m² | - |
| 1777788617 | 11.11° C | 93% | 1012.7 hPa | 0 mm | - | 0 W/m² | - |
| 1777788318 | 11.11° C | 93% | 1012.6 hPa | 0 mm | - | 0 W/m² | - |
* Rain latest hour (hover to see other rain measurements)
** Current wind speed in m/s (hover to see current wind gust speed)